Time;durP1;ratioP1;P1;durP2;ratioP2;P2;SDS_P1;SDS_P2;PMS_P1;PMS_P2;Temp;Humidity;BMP_temperature;BMP_pressure;BME280_temperature;BME280_humidity;BME280_pressure;Samples;Min_cycle;Max_cycle;Signal;HPM_P1;HPM_P2
2022/01/05 00:01:48;;;;;;;8.77;5.47;;;;;;;1.21;100.00;99142.28;5091820;28;20034;-60
2022/01/05 00:04:14;;;;;;;9.15;5.93;;;;;;;1.23;100.00;99153.41;5092848;28;20107;-60
2022/01/05 00:06:39;;;;;;;9.88;5.85;;;;;;;1.26;100.00;99148.16;5092661;28;20048;-60
2022/01/05 00:09:04;;;;;;;15.93;6.38;;;;;;;1.30;100.00;99154.91;5092544;28;20038;-60
2022/01/05 00:11:30;;;;;;;13.85;6.05;;;;;;;1.24;100.00;99150.78;5093039;28;20024;-60
2022/01/05 00:13:57;;;;;;;13.25;5.97;;;;;;;1.32;100.00;99159.13;5093203;28;20152;-60
2022/01/05 00:16:22;;;;;;;14.52;7.47;;;;;;;1.44;100.00;99166.50;5092498;28;20031;-61
2022/01/05 00:18:47;;;;;;;14.50;6.00;;;;;;;1.44;100.00;99163.94;5092606;28;20133;-60
2022/01/05 00:21:13;;;;;;;9.43;6.20;;;;;;;1.55;100.00;99166.16;5092549;28;20051;-60
2022/01/05 00:23:38;;;;;;;20.05;7.65;;;;;;;1.53;100.00;99163.59;5091828;28;20077;-60
2022/01/05 00:26:04;;;;;;;15.18;6.13;;;;;;;1.60;100.00;99169.41;5092279;28;20146;-60
2022/01/05 00:28:30;;;;;;;14.88;5.50;;;;;;;1.62;100.00;99167.66;5093068;28;20386;-60
2022/01/05 00:30:55;;;;;;;19.65;6.00;;;;;;;1.60;100.00;99164.25;5074721;28;20039;-60
2022/01/05 00:33:21;;;;;;;13.02;5.63;;;;;;;1.66;100.00;99174.38;5090610;28;20062;-60
2022/01/05 00:35:46;;;;;;;20.95;5.55;;;;;;;1.64;100.00;99171.00;5074015;28;20094;-60
2022/01/05 00:38:12;;;;;;;12.05;5.47;;;;;;;1.66;100.00;99168.34;5092237;28;20031;-60
2022/01/05 00:40:37;;;;;;;10.55;6.15;;;;;;;1.66;100.00;99173.53;5092522;28;20028;-60
2022/01/05 00:43:02;;;;;;;11.13;5.95;;;;;;;1.65;100.00;99167.53;5090808;28;20028;-60
2022/01/05 00:45:28;;;;;;;11.05;5.95;;;;;;;1.65;100.00;99172.72;5092529;28;20024;-60
2022/01/05 00:47:53;;;;;;;10.43;5.50;;;;;;;1.66;100.00;99171.78;5091989;28;20043;-60
2022/01/05 00:50:18;;;;;;;9.60;5.70;;;;;;;1.65;100.00;99174.44;5092133;28;20086;-60
2022/01/05 00:52:44;;;;;;;10.15;5.57;;;;;;;1.63;100.00;99166.72;5108080;28;20505;-60
2022/01/05 00:55:09;;;;;;;10.98;5.18;;;;;;;1.60;100.00;99169.41;5092031;28;20105;-60
2022/01/05 00:57:35;;;;;;;8.38;4.78;;;;;;;1.56;100.00;99183.34;5092031;28;20036;-60
2022/01/05 01:00:01;;;;;;;9.95;5.60;;;;;;;1.53;100.00;99179.13;5092241;28;20383;-60
2022/01/05 01:02:26;;;;;;;10.95;5.47;;;;;;;1.45;100.00;99159.59;5087683;28;20031;-60
2022/01/05 01:04:52;;;;;;;10.07;4.90;;;;;;;1.50;100.00;99179.25;5091923;28;20028;-60
2022/01/05 01:07:17;;;;;;;15.13;5.88;;;;;;;1.47;100.00;99183.66;5092395;28;20038;-60
2022/01/05 01:09:42;;;;;;;22.42;5.30;;;;;;;1.42;100.00;99183.81;5091540;28;20031;-60
2022/01/05 01:12:09;;;;;;;10.50;4.18;;;;;;;1.39;100.00;99183.06;5094121;28;20085;-60
2022/01/05 01:14:34;;;;;;;9.50;4.75;;;;;;;1.39;100.00;99177.88;5095435;28;20028;-60
2022/01/05 01:16:59;;;;;;;11.88;4.88;;;;;;;1.39;100.00;99185.66;5095846;28;20032;-60
2022/01/05 01:19:25;;;;;;;16.42;5.32;;;;;;;1.37;100.00;99183.13;5093161;28;20035;-60
2022/01/05 01:21:50;;;;;;;17.80;4.80;;;;;;;1.33;100.00;99176.34;5094760;28;20040;-60
2022/01/05 01:24:15;;;;;;;8.60;4.63;;;;;;;1.31;100.00;99192.84;5095659;28;20052;-60
2022/01/05 01:26:41;;;;;;;17.42;5.22;;;;;;;1.25;100.00;99191.28;5094587;28;20031;-60
2022/01/05 01:29:06;;;;;;;11.30;5.28;;;;;;;1.05;100.00;99164.38;5095914;28;20110;-60
2022/01/05 01:31:32;;;;;;;18.92;5.72;;;;;;;1.17;100.00;99189.84;5095709;28;20028;-60
2022/01/05 01:33:57;;;;;;;11.93;5.40;;;;;;;1.17;100.00;99192.44;5093472;28;20024;-60
2022/01/05 01:36:22;;;;;;;21.50;6.43;;;;;;;1.11;100.00;99195.22;5094445;28;20122;-60
2022/01/05 01:38:48;;;;;;;10.55;4.72;;;;;;;1.08;100.00;99193.56;5095461;28;20451;-60
2022/01/05 01:41:13;;;;;;;10.98;5.18;;;;;;;0.93;100.00;99181.97;5094904;28;20028;-60
2022/01/05 01:43:39;;;;;;;11.93;5.38;;;;;;;1.07;100.00;99197.03;5090625;28;20081;-60
2022/01/05 01:46:05;;;;;;;12.88;5.38;;;;;;;1.00;100.00;99204.16;5094974;28;20063;-60
2022/01/05 01:48:31;;;;;;;19.13;5.10;;;;;;;1.01;100.00;99195.47;5095128;28;20028;-60
2022/01/05 01:50:57;;;;;;;18.42;6.18;;;;;;;1.00;100.00;99204.16;5093013;28;20367;-60
2022/01/05 01:53:22;;;;;;;20.23;5.93;;;;;;;0.92;100.00;99198.34;5094734;28;20123;-60
2022/01/05 01:55:49;;;;;;;15.05;5.25;;;;;;;0.93;100.00;99212.13;5094983;28;20039;-60
2022/01/05 01:58:16;;;;;;;12.25;5.53;;;;;;;0.87;100.00;99208.00;5076540;28;20040;-60
2022/01/05 02:00:42;;;;;;;17.67;6.13;;;;;;;0.89;100.00;99226.03;5111022;28;20038;-60
2022/01/05 02:03:07;;;;;;;14.60;5.85;;;;;;;0.82;100.00;99221.94;5095300;28;20032;-60
2022/01/05 02:05:33;;;;;;;12.55;5.40;;;;;;;0.80;100.00;99222.00;5095102;28;20064;-60
2022/01/05 02:07:59;;;;;;;11.23;5.10;;;;;;;0.79;100.00;99230.66;5092088;28;20036;-60
2022/01/05 02:10:24;;;;;;;17.27;5.60;;;;;;;0.76;100.00;99222.97;5094628;28;20518;-60
2022/01/05 02:12:50;;;;;;;12.75;4.45;;;;;;;0.69;100.00;99229.22;5094532;28;20115;-60
2022/01/05 02:15:16;;;;;;;13.15;4.97;;;;;;;0.65;100.00;99222.44;5092495;28;20035;-60
2022/01/05 02:17:55;;;;;;;15.25;5.15;;;;;;;0.62;100.00;99221.69;5092591;28;20056;-60
2022/01/05 02:20:23;;;;;;;21.13;5.47;;;;;;;0.56;100.00;99227.88;5091306;28;20024;-60
2022/01/05 02:22:49;;;;;;;13.80;4.80;;;;;;;0.56;100.00;99216.69;5092507;28;20036;-60
2022/01/05 02:25:15;;;;;;;16.75;4.93;;;;;;;0.58;100.00;99220.91;5094756;28;20085;-60
2022/01/05 02:27:41;;;;;;;22.45;5.47;;;;;;;0.52;100.00;99226.28;5094459;28;20458;-60
2022/01/05 02:30:09;;;;;;;15.15;4.18;;;;;;;0.46;100.00;99229.03;5094391;28;20024;-60
2022/01/05 02:32:35;;;;;;;16.65;5.05;;;;;;;0.42;100.00;99235.19;5094079;28;20036;-60
2022/01/05 02:35:00;;;;;;;19.20;6.13;;;;;;;0.40;100.00;99242.13;5094456;28;20024;-60
2022/01/05 02:37:26;;;;;;;13.82;5.03;;;;;;;0.06;100.00;99169.06;5093618;28;20099;-60
2022/01/05 02:39:51;;;;;;;14.48;4.93;;;;;;;0.43;100.00;99236.88;5094975;28;20032;-60
2022/01/05 02:42:29;;;;;;;13.73;4.95;;;;;;;0.39;100.00;99238.69;5093755;28;20028;-60
2022/01/05 02:44:55;;;;;;;8.75;4.07;;;;;;;0.36;100.00;99240.53;5093986;28;20050;-60
2022/01/05 02:47:21;;;;;;;14.20;5.15;;;;;;;-0.07;100.00;99173.72;5094023;28;20478;-60
2022/01/05 02:49:47;;;;;;;13.85;5.18;;;;;;;0.31;100.00;99238.06;5091973;28;20031;-60
2022/01/05 02:52:13;;;;;;;12.40;4.57;;;;;;;0.27;100.00;99251.13;5092899;28;20390;-60
2022/01/05 02:54:38;;;;;;;12.27;4.40;;;;;;;0.24;100.00;99258.91;5093860;28;20028;-60
2022/01/05 02:57:04;;;;;;;17.13;4.63;;;;;;;0.19;100.00;99259.06;5093726;28;20047;-60
2022/01/05 02:59:29;;;;;;;25.75;4.55;;;;;;;0.15;100.00;99262.59;5093991;28;20446;-60
2022/01/05 03:01:54;;;;;;;15.80;5.00;;;;;;;0.14;100.00;99258.31;5093806;28;20386;-60
2022/01/05 03:04:20;;;;;;;15.77;4.80;;;;;;;0.16;100.00;99266.03;5093009;28;20024;-60
2022/01/05 03:06:45;;;;;;;11.80;4.68;;;;;;;0.11;100.00;99265.31;5092597;28;20145;-60
2022/01/05 03:09:10;;;;;;;17.33;4.63;;;;;;;0.06;100.00;99273.19;5083888;28;20466;-60
2022/01/05 03:11:36;;;;;;;20.85;5.47;;;;;;;0.08;100.00;99273.97;5093340;28;20051;-60
2022/01/05 03:14:01;;;;;;;11.15;4.38;;;;;;;0.06;100.00;99277.50;5085992;28;20103;-60
2022/01/05 03:16:26;;;;;;;22.40;6.10;;;;;;;0.07;100.00;99281.78;5092876;28;20027;-60
2022/01/05 03:18:52;;;;;;;18.77;5.85;;;;;;;0.05;100.00;99286.13;5093296;28;20035;-60
2022/01/05 03:21:17;;;;;;;19.15;5.88;;;;;;;0.05;100.00;99297.31;5093561;28;20035;-60
2022/01/05 03:23:46;;;;;;;15.32;5.07;;;;;;;0.04;100.00;99297.31;5092570;28;20115;-60
2022/01/05 03:26:11;;;;;;;10.88;5.45;;;;;;;-0.04;100.00;99295.81;5093477;28;20103;-60
2022/01/05 03:28:36;;;;;;;19.13;5.50;;;;;;;-0.08;100.00;99291.63;5093324;28;20081;-60
2022/01/05 03:31:02;;;;;;;12.57;4.70;;;;;;;-0.05;100.00;99303.59;5093256;28;20131;-60
2022/01/05 03:33:27;;;;;;;15.88;6.00;;;;;;;-0.06;100.00;99301.88;5093119;28;20028;-60
2022/01/05 03:35:53;;;;;;;9.75;4.70;;;;;;;-0.11;100.00;99309.75;5092575;28;20032;-60
2022/01/05 03:38:19;;;;;;;9.15;4.78;;;;;;;-0.14;100.00;99322.75;5092329;28;20028;-60
2022/01/05 03:40:45;;;;;;;16.40;5.07;;;;;;;-0.15;100.00;99318.47;5090229;28;20130;-61
2022/01/05 03:43:12;;;;;;;14.45;4.90;;;;;;;-0.20;100.00;99322.88;5093085;28;20031;-60
2022/01/05 03:45:38;;;;;;;15.45;4.97;;;;;;;-0.48;100.00;99280.56;5091881;28;20051;-60
2022/01/05 03:48:05;;;;;;;23.10;5.75;;;;;;;-0.11;100.00;99335.56;5093401;28;20367;-60
2022/01/05 03:50:31;;;;;;;14.00;4.93;;;;;;;-0.17;100.00;99330.53;5093160;28;20024;-60
2022/01/05 03:52:56;;;;;;;21.63;5.40;;;;;;;-0.58;100.00;99264.47;5093179;28;20444;-61
2022/01/05 03:55:22;;;;;;;20.08;5.40;;;;;;;-0.20;100.00;99327.19;5083843;28;20024;-60
2022/01/05 03:57:47;;;;;;;12.63;5.30;;;;;;;-0.19;100.00;99332.31;5092118;28;20043;-60
2022/01/05 04:00:13;;;;;;;10.88;5.00;;;;;;;-0.18;100.00;99346.06;5092953;28;20054;-61
2022/01/05 04:02:39;;;;;;;11.73;5.82;;;;;;;-0.19;100.00;99346.94;5092474;28;20040;-60
2022/01/05 04:05:05;;;;;;;11.02;4.78;;;;;;;-0.25;100.00;99349.69;5093249;28;20028;-60
2022/01/05 04:07:30;;;;;;;8.90;3.85;;;;;;;-0.32;100.00;99343.81;5072565;28;20466;-60
2022/01/05 04:09:55;;;;;;;15.18;4.68;;;;;;;-0.25;100.00;99360.00;5091747;28;20048;-61
2022/01/05 04:12:21;;;;;;;22.35;5.22;;;;;;;-0.23;100.00;99359.06;5090886;28;20028;-60
2022/01/05 04:14:46;;;;;;;12.95;5.15;;;;;;;-0.23;100.00;99358.22;5092596;28;20066;-60
2022/01/05 04:17:11;;;;;;;20.63;5.00;;;;;;;-0.30;100.00;99357.53;5092472;28;20054;-60
2022/01/05 04:19:37;;;;;;;18.30;4.80;;;;;;;-0.27;100.00;99362.59;5092767;28;20394;-60
2022/01/05 04:22:02;;;;;;;12.50;4.32;;;;;;;-0.27;100.00;99357.44;5087947;28;20160;-60
2022/01/05 04:24:28;;;;;;;17.65;5.25;;;;;;;-0.30;100.00;99367.00;5091561;28;20111;-61
2022/01/05 04:26:53;;;;;;;20.83;4.65;;;;;;;-0.32;100.00;99363.59;5091208;28;20465;-60
2022/01/05 04:29:18;;;;;;;10.57;4.55;;;;;;;-0.31;100.00;99365.31;5092249;28;20127;-60
2022/01/05 04:31:45;;;;;;;11.70;3.60;;;;;;;-0.34;100.00;99366.25;5085519;28;20036;-60
2022/01/05 04:34:11;;;;;;;24.27;5.28;;;;;;;-0.36;100.00;99370.56;5092632;28;20028;-60
2022/01/05 04:36:36;;;;;;;13.52;5.15;;;;;;;-0.71;100.00;99306.88;5092367;28;20076;-60
2022/01/05 04:39:02;;;;;;;19.55;4.95;;;;;;;-0.29;100.00;99377.28;5091614;28;20024;-61
2022/01/05 04:41:28;;;;;;;24.52;5.53;;;;;;;-0.26;100.00;99374.63;5092506;28;20023;-60
2022/01/05 04:43:53;;;;;;;20.55;5.18;;;;;;;-0.27;100.00;99378.09;5092488;28;20779;-60
2022/01/05 04:46:18;;;;;;;18.40;4.50;;;;;;;-0.25;100.00;99378.94;5093145;28;20039;-60
2022/01/05 04:48:44;;;;;;;12.10;4.75;;;;;;;-0.21;100.00;99384.88;5096834;28;20495;-60
2022/01/05 04:51:09;;;;;;;16.83;5.38;;;;;;;-0.21;100.00;99385.72;5096400;28;20036;-60
2022/01/05 04:53:35;;;;;;;12.93;4.85;;;;;;;-0.43;100.00;99353.53;5096137;28;20028;-62
2022/01/05 04:56:00;;;;;;;15.23;5.22;;;;;;;-0.30;100.00;99373.00;5094861;28;20032;-60
2022/01/05 04:58:26;;;;;;;16.40;4.25;;;;;;;-0.34;100.00;99386.03;5096247;28;20040;-60
2022/01/05 05:00:51;;;;;;;12.77;5.05;;;;;;;-0.35;100.00;99385.19;5096068;28;20030;-60
2022/01/05 05:03:16;;;;;;;19.65;5.40;;;;;;;-0.51;100.00;99350.28;5095708;28;20024;-60
2022/01/05 05:05:42;;;;;;;13.05;4.32;;;;;;;-0.27;100.00;99388.41;5095798;28;20024;-60
2022/01/05 05:08:07;;;;;;;11.68;4.20;;;;;;;-0.29;100.00;99390.19;5095837;28;20035;-60
2022/01/05 05:10:33;;;;;;;18.08;4.82;;;;;;;-0.30;100.00;99388.50;5095210;28;20024;-60
2022/01/05 05:12:58;;;;;;;13.48;5.43;;;;;;;-0.29;100.00;99385.03;5096062;28;20027;-60
2022/01/05 05:15:24;;;;;;;14.32;5.35;;;;;;;-0.32;100.00;99385.09;5095933;28;20416;-60
2022/01/05 05:17:49;;;;;;;17.33;5.18;;;;;;;-0.34;100.00;99381.72;5077542;28;20097;-60
2022/01/05 05:20:14;;;;;;;19.63;4.55;;;;;;;-0.38;100.00;99376.66;5095651;28;20032;-60
2022/01/05 05:22:40;;;;;;;17.88;4.97;;;;;;;-0.31;100.00;99385.97;5095175;28;20042;-60
2022/01/05 05:25:06;;;;;;;17.88;4.93;;;;;;;-0.28;100.00;99389.31;5094624;28;20176;-60
2022/01/05 05:27:32;;;;;;;11.68;4.57;;;;;;;-0.23;100.00;99395.22;5095540;28;20056;-60
2022/01/05 05:29:57;;;;;;;22.75;5.53;;;;;;;-0.34;100.00;99375.72;5095477;28;20508;-59
2022/01/05 05:32:22;;;;;;;20.73;4.95;;;;;;;-0.24;100.00;99397.84;5095121;28;20446;-60
2022/01/05 05:34:48;;;;;;;14.65;4.32;;;;;;;-0.25;100.00;99393.56;5095215;28;20043;-59
2022/01/05 05:37:15;;;;;;;10.95;3.70;;;;;;;-0.22;100.00;99389.16;5095505;28;20093;-59
2022/01/05 05:39:41;;;;;;;22.45;6.07;;;;;;;-0.56;100.00;99340.06;5095029;28;20032;-59
2022/01/05 05:42:07;;;;;;;17.05;5.18;;;;;;;-0.16;100.00;99396.78;5094373;28;20031;-59
2022/01/05 05:44:32;;;;;;;10.98;4.97;;;;;;;-0.10;100.00;99406.94;5094952;28;20032;-59
2022/01/05 05:46:58;;;;;;;16.38;5.22;;;;;;;-0.12;100.00;99403.56;5095044;28;20028;-60
2022/01/05 05:49:23;;;;;;;9.27;3.97;;;;;;;-0.13;100.00;99407.00;5093046;28;20036;-60
2022/01/05 05:51:48;;;;;;;16.48;5.40;;;;;;;-0.11;100.00;99415.59;5094542;28;20047;-60
2022/01/05 05:54:14;;;;;;;16.63;4.20;;;;;;;-0.11;100.00;99407.84;5094402;28;20508;-60
2022/01/05 05:56:39;;;;;;;17.88;4.88;;;;;;;-0.72;100.00;99317.25;5092080;28;20405;-60
2022/01/05 05:59:04;;;;;;;11.40;4.47;;;;;;;-0.09;100.00;99408.66;5094156;28;20047;-60
2022/01/05 06:01:30;;;;;;;14.15;5.57;;;;;;;-0.11;100.00;99413.00;5094752;28;20455;-60
2022/01/05 06:03:55;;;;;;;35.05;13.73;;;;;;;-0.14;100.00;99420.81;5095225;28;20027;-60
2022/01/05 06:06:21;;;;;;;38.83;18.83;;;;;;;-0.11;100.00;99414.75;5095277;28;20016;-60
2022/01/05 06:08:46;;;;;;;45.78;25.85;;;;;;;-0.12;100.00;99418.19;5094417;28;20544;-60
2022/01/05 06:11:11;;;;;;;24.80;15.25;;;;;;;-0.15;100.00;99424.28;5094817;28;20028;-60
2022/01/05 06:13:37;;;;;;;17.80;8.25;;;;;;;-0.14;100.00;99430.31;5092430;28;20024;-60
2022/01/05 06:16:02;;;;;;;13.50;6.80;;;;;;;-0.15;100.00;99426.88;5094664;28;20024;-60
2022/01/05 06:18:28;;;;;;;19.90;7.88;;;;;;;-0.29;100.00;99423.75;5094710;28;20127;-60
2022/01/05 06:20:53;;;;;;;11.98;8.05;;;;;;;-0.19;100.00;99448.47;5094364;28;20468;-60
2022/01/05 06:23:19;;;;;;;29.23;10.48;;;;;;;-0.22;100.00;99448.53;5094043;28;20036;-60
2022/01/05 06:25:44;;;;;;;21.05;8.77;;;;;;;-0.26;100.00;99441.72;5094608;28;20481;-60
2022/01/05 06:28:11;;;;;;;21.75;6.63;;;;;;;-0.14;100.00;99463.84;5093818;28;20028;-60
2022/01/05 06:30:39;;;;;;;14.35;7.00;;;;;;;-0.06;100.00;99460.22;5093961;28;20035;-60
2022/01/05 06:33:05;;;;;;;16.02;6.45;;;;;;;0.06;100.00;99458.25;5094540;28;20414;-60
2022/01/05 06:35:30;;;;;;;28.30;7.75;;;;;;;0.11;100.00;99458.97;5093636;28;20024;-60
2022/01/05 06:37:56;;;;;;;19.35;6.40;;;;;;;0.21;100.00;99463.88;5092431;28;20028;-60
2022/01/05 06:40:22;;;;;;;16.17;5.93;;;;;;;0.19;100.00;99468.25;5093278;28;20054;-60
2022/01/05 06:42:47;;;;;;;17.75;5.57;;;;;;;0.20;100.00;99472.53;5091608;28;20020;-60
2022/01/05 06:45:13;;;;;;;11.93;5.80;;;;;;;0.26;100.00;99481.88;5087798;28;20477;-60
2022/01/05 06:47:38;;;;;;;13.77;6.03;;;;;;;0.32;100.00;99484.28;5086173;28;20074;-60
2022/01/05 06:50:04;;;;;;;15.30;5.55;;;;;;;0.37;100.00;99480.72;5093326;28;20058;-60
2022/01/05 06:52:30;;;;;;;21.40;5.43;;;;;;;0.42;100.00;99478.88;5093017;28;20123;-60
2022/01/05 06:54:55;;;;;;;13.65;5.20;;;;;;;0.45;100.00;99483.13;5092976;28;20431;-60
2022/01/05 06:57:21;;;;;;;16.55;4.97;;;;;;;0.47;100.00;99483.94;5093242;28;20078;-60
2022/01/05 06:59:46;;;;;;;20.50;5.18;;;;;;;0.50;100.00;99495.06;5090676;28;20057;-60
2022/01/05 07:02:12;;;;;;;25.17;5.07;;;;;;;0.53;100.00;99486.38;5092093;28;20116;-60
2022/01/05 07:04:37;;;;;;;18.02;6.10;;;;;;;0.56;100.00;99481.13;5071231;28;20036;-60
2022/01/05 07:07:03;;;;;;;14.63;5.28;;;;;;;0.57;100.00;99472.50;5059368;28;20036;-60
2022/01/05 07:09:28;;;;;;;19.70;5.15;;;;;;;0.58;100.00;99484.50;5057621;28;20036;-60
2022/01/05 07:11:54;;;;;;;13.82;5.53;;;;;;;0.55;100.00;99487.16;5074957;28;20032;-59
2022/01/05 07:14:19;;;;;;;18.75;5.72;;;;;;;0.53;100.00;99491.53;5057743;28;20043;-59
2022/01/05 07:16:44;;;;;;;13.82;5.25;;;;;;;0.58;100.00;99500.00;5057522;28;20044;-59
2022/01/05 07:19:10;;;;;;;19.80;5.45;;;;;;;0.55;100.00;99484.59;5059009;28;20041;-59
2022/01/05 07:21:35;;;;;;;12.18;5.68;;;;;;;0.62;100.00;99491.31;5057903;28;20036;-59
2022/01/05 07:24:01;;;;;;;13.82;5.35;;;;;;;0.58;100.00;99494.84;5058996;28;20138;-59
2022/01/05 07:26:27;;;;;;;18.30;5.10;;;;;;;0.15;100.00;99445.97;5059018;28;20040;-59
2022/01/05 07:28:54;;;;;;;16.30;6.55;;;;;;;0.59;100.00;99506.03;5063880;28;20058;-59
2022/01/05 07:31:19;;;;;;;20.45;6.28;;;;;;;0.66;100.00;99507.59;5067733;28;20078;-59
2022/01/05 07:33:45;;;;;;;13.38;5.25;;;;;;;0.69;100.00;99508.38;5067951;28;20040;-59
2022/01/05 07:36:10;;;;;;;16.73;5.63;;;;;;;0.74;100.00;99514.28;5066064;28;20472;-60
2022/01/05 07:38:36;;;;;;;12.93;4.60;;;;;;;0.17;100.00;99422.69;5063902;28;20742;-59
2022/01/05 07:41:01;;;;;;;17.50;4.93;;;;;;;0.78;100.00;99523.63;5064675;28;20062;-59
2022/01/05 07:43:26;;;;;;;19.45;5.68;;;;;;;0.78;100.00;99533.97;5065950;28;20027;-59
2022/01/05 07:45:52;;;;;;;17.23;5.68;;;;;;;0.84;100.00;99530.41;5062484;28;20032;-59
2022/01/05 07:48:17;;;;;;;13.15;4.65;;;;;;;0.87;100.00;99536.34;5051940;28;20049;-59
2022/01/05 07:50:43;;;;;;;19.58;4.95;;;;;;;0.84;100.00;99544.19;5045668;28;20124;-59
2022/01/05 07:53:08;;;;;;;10.90;4.50;;;;;;;0.88;100.00;99556.13;5047272;28;20564;-59
2022/01/05 07:55:34;;;;;;;22.02;6.20;;;;;;;0.91;100.00;99558.63;5049483;28;20146;-59
2022/01/05 07:58:00;;;;;;;22.35;5.25;;;;;;;0.95;100.00;99560.28;5046068;28;20036;-59
2022/01/05 08:00:25;;;;;;;15.60;5.55;;;;;;;0.99;100.00;99561.03;5047046;28;20028;-60
2022/01/05 08:02:51;;;;;;;16.30;5.25;;;;;;;1.03;100.00;99566.09;5045218;28;20028;-59
2022/01/05 08:05:16;;;;;;;13.25;5.07;;;;;;;1.07;100.00;99566.88;5045168;28;20055;-59
2022/01/05 08:07:41;;;;;;;17.75;4.82;;;;;;;0.98;100.00;99551.59;5046678;28;20044;-59
2022/01/05 08:10:07;;;;;;;14.80;4.97;;;;;;;1.10;100.00;99563.38;5046607;28;20028;-60
2022/01/05 08:12:33;;;;;;;16.33;4.50;;;;;;;1.15;100.00;99564.09;5045374;28;20757;-59
2022/01/05 08:14:58;;;;;;;12.77;5.15;;;;;;;1.18;100.00;99571.78;5045190;28;20032;-59
2022/01/05 08:17:23;;;;;;;16.20;5.03;;;;;;;1.20;100.00;99567.41;5046178;28;20024;-59
2022/01/05 08:19:49;;;;;;;12.98;4.53;;;;;;;1.19;100.00;99565.69;5046220;28;20028;-59
2022/01/05 08:22:14;;;;;;;15.75;4.50;;;;;;;1.22;100.00;99565.63;5045709;28;20828;-59
2022/01/05 08:24:40;;;;;;;23.40;5.65;;;;;;;1.23;100.00;99573.34;5046545;28;20793;-59
2022/01/05 08:27:05;;;;;;;12.55;4.53;;;;;;;1.24;100.00;99584.56;5045940;28;20182;-60
2022/01/05 08:29:31;;;;;;;12.88;5.50;;;;;;;1.15;100.00;99559.75;5045457;28;20060;-59
2022/01/05 08:31:58;;;;;;;16.45;4.63;;;;;;;1.33;100.00;99592.06;5044616;28;20042;-60
2022/01/05 08:34:23;;;;;;;19.58;5.70;;;;;;;1.29;100.00;99567.16;5059703;28;20064;-60
2022/01/05 08:36:49;;;;;;;12.90;4.50;;;;;;;1.46;100.00;99599.47;5046063;28;20031;-60
2022/01/05 08:39:14;;;;;;;12.25;4.80;;;;;;;1.52;100.00;99601.09;5047317;28;20928;-59
2022/01/05 08:41:40;;;;;;;14.82;4.43;;;;;;;1.39;100.00;99571.22;5046296;28;20059;-59
2022/01/05 08:44:05;;;;;;;10.32;4.07;;;;;;;1.60;100.00;99601.72;5045409;28;20128;-60
2022/01/05 08:46:30;;;;;;;20.17;4.75;;;;;;;1.67;100.00;99607.56;5046112;28;20131;-60
2022/01/05 08:48:56;;;;;;;10.88;5.10;;;;;;;1.75;100.00;99610.81;5045839;28;20028;-59
2022/01/05 08:51:21;;;;;;;12.73;4.60;;;;;;;1.78;100.00;99609.00;5046684;28;20024;-59
2022/01/05 08:53:46;;;;;;;14.30;3.95;;;;;;;1.80;100.00;99611.50;5045572;28;20776;-59
2022/01/05 08:56:12;;;;;;;15.27;5.07;;;;;;;1.83;100.00;99627.81;5046814;28;20024;-59
2022/01/05 08:58:38;;;;;;;17.90;5.07;;;;;;;1.74;100.00;99607.38;5045828;28;20040;-59
2022/01/05 09:01:03;;;;;;;21.52;5.80;;;;;;;1.84;100.00;99616.56;5046741;28;20051;-60
2022/01/05 09:03:29;;;;;;;16.98;6.10;;;;;;;1.82;100.00;99610.59;5046379;28;20027;-60
2022/01/05 09:05:54;;;;;;;18.92;5.32;;;;;;;1.82;100.00;99609.75;5046550;28;20031;-60
2022/01/05 09:08:20;;;;;;;10.32;4.55;;;;;;;1.82;100.00;99615.78;5046520;28;20886;-60
2022/01/05 09:10:45;;;;;;;12.80;4.80;;;;;;;1.82;100.00;99620.97;5046413;28;20057;-59
2022/01/05 09:13:12;;;;;;;14.98;4.85;;;;;;;1.86;100.00;99612.19;5045419;28;20032;-59
2022/01/05 09:15:38;;;;;;;15.52;4.15;;;;;;;1.88;100.00;99620.78;5045369;28;20027;-59
2022/01/05 09:18:03;;;;;;;22.20;4.97;;;;;;;1.93;100.00;99623.22;5045720;28;20081;-59
2022/01/05 09:20:29;;;;;;;10.30;4.70;;;;;;;1.99;100.00;99623.91;5062959;28;20024;-60
2022/01/05 09:22:55;;;;;;;10.93;4.65;;;;;;;2.01;100.00;99627.31;5048316;28;20165;-60
2022/01/05 09:25:22;;;;;;;15.48;4.47;;;;;;;2.01;100.00;99626.47;5046498;28;20207;-59
2022/01/05 09:27:48;;;;;;;13.38;4.20;;;;;;;2.04;100.00;99631.56;5045080;28;20020;-59
2022/01/05 09:30:14;;;;;;;20.17;5.25;;;;;;;2.05;100.00;99634.13;5044944;28;20284;-60
2022/01/05 09:32:40;;;;;;;12.45;5.20;;;;;;;2.12;100.00;99633.94;5048072;28;20070;-60
2022/01/05 09:35:08;;;;;;;14.20;5.72;;;;;;;2.17;100.00;99637.22;5050117;28;20036;-60
2022/01/05 09:37:39;;;;;;;17.05;4.88;;;;;;;2.21;100.00;99634.53;5032078;28;20397;-60
2022/01/05 09:42:51;;;;;;;17.08;5.80;;;;;;;2.19;100.00;99646.69;5009023;28;20043;-59
2022/01/05 09:45:28;;;;;;;14.70;4.55;;;;;;;2.23;100.00;99643.09;5049444;28;20060;-59
2022/01/05 09:48:18;;;;;;;15.50;5.40;;;;;;;2.26;100.00;99647.38;5029821;28;20028;-60
2022/01/05 09:50:54;;;;;;;13.07;5.68;;;;;;;2.33;100.00;99649.72;5049083;28;20047;-60
2022/01/05 09:53:21;;;;;;;22.25;5.97;;;;;;;2.02;100.00;99600.53;5050150;28;20802;-59
2022/01/05 09:55:51;;;;;;;17.70;5.30;;;;;;;2.43;100.00;99647.72;5065015;28;20056;-60
2022/01/05 09:58:20;;;;;;;12.73;5.20;;;;;;;2.49;100.00;99663.94;5031344;28;20046;-60
2022/01/05 10:00:46;;;;;;;13.52;5.05;;;;;;;2.48;100.00;99662.25;5047046;28;20357;-60
2022/01/05 10:03:14;;;;;;;14.52;5.15;;;;;;;2.53;100.00;99662.94;5047338;28;21011;-60
2022/01/05 10:05:40;;;;;;;13.98;5.60;;;;;;;2.60;100.00;99660.19;5063400;28;20134;-60
2022/01/05 10:08:06;;;;;;;19.55;4.95;;;;;;;2.70;100.00;99670.25;5047221;28;20032;-60
2022/01/05 10:10:31;;;;;;;19.55;5.10;;;;;;;2.75;100.00;99677.88;5048546;28;20086;-59
2022/01/05 10:12:57;;;;;;;12.75;5.15;;;;;;;2.77;100.00;99669.13;5090988;28;20024;-60
2022/01/05 10:15:22;;;;;;;11.93;4.68;;;;;;;2.91;100.00;99679.94;5094002;28;20062;-60
2022/01/05 10:17:47;;;;;;;16.33;5.20;;;;;;;2.95;100.00;99675.50;5087376;28;20030;-60
2022/01/05 10:20:13;;;;;;;21.13;6.53;;;;;;;3.04;100.00;99680.44;5089323;28;20038;-59
2022/01/05 10:22:42;;;;;;;15.55;5.03;;;;;;;3.09;100.00;99684.56;5093870;28;20054;-59
2022/01/05 10:25:17;;;;;;;12.32;5.07;;;;;;;3.06;100.00;99689.88;5093576;28;20068;-60
2022/01/05 10:27:48;;;;;;;16.77;4.53;;;;;;;3.18;100.00;99695.56;5093883;28;20016;-60
2022/01/05 10:30:14;;;;;;;11.70;5.07;;;;;;;3.33;100.00;99695.91;5075686;28;20043;-60
2022/01/05 10:32:44;;;;;;;11.23;4.35;;;;;;;3.34;100.00;99700.22;5049857;28;20758;-60
2022/01/05 10:35:19;;;;;;;16.75;4.57;;;;;;;3.26;100.00;99697.00;5047819;28;20036;-60
2022/01/05 10:37:47;;;;;;;19.75;5.00;;;;;;;3.19;100.00;99699.84;5044324;28;20762;-60
2022/01/05 10:40:22;;;;;;;11.23;5.28;;;;;;;3.13;100.00;99698.31;5027871;28;20032;-59
2022/01/05 10:42:53;;;;;;;12.23;5.20;;;;;;;3.08;100.00;99707.97;5046651;28;20039;-60
2022/01/05 10:45:21;;;;;;;14.48;5.32;;;;;;;3.04;100.00;99712.41;5047302;28;20222;-60
2022/01/05 10:48:11;;;;;;;15.18;5.78;;;;;;;3.04;100.00;99706.38;5046787;28;20020;-60
2022/01/05 10:50:37;;;;;;;17.15;5.50;;;;;;;3.05;100.00;99703.72;5044798;28;20035;-60
2022/01/05 10:53:05;;;;;;;15.70;4.97;;;;;;;3.11;100.00;99717.41;5047247;28;20052;-60
2022/01/05 10:55:32;;;;;;;14.68;5.30;;;;;;;3.14;100.00;99727.72;5046519;28;20024;-60
2022/01/05 10:58:41;;;;;;;11.77;5.30;;;;;;;3.16;100.00;99739.72;5047074;28;20028;-60
2022/01/05 11:01:07;;;;;;;24.95;6.05;;;;;;;3.18;100.00;99730.13;5022035;28;20161;-60
2022/01/05 11:03:39;;;;;;;16.05;5.32;;;;;;;3.22;100.00;99730.91;5046030;28;20039;-60
2022/01/05 11:06:14;;;;;;;14.25;5.30;;;;;;;3.25;100.00;99739.44;5046257;28;20024;-60
2022/01/05 11:09:00;;;;;;;13.10;5.25;;;;;;;3.23;100.00;99743.84;5043147;28;20028;-60
2022/01/05 11:11:37;;;;;;;14.10;5.20;;;;;;;3.23;100.00;99742.97;5021877;28;20848;-60
2022/01/05 11:14:13;;;;;;;10.68;5.00;;;;;;;3.23;100.00;99737.78;5026505;28;20771;-59
2022/01/05 11:16:43;;;;;;;11.15;5.22;;;;;;;3.14;100.00;99743.28;5045637;28;20028;-60
2022/01/05 11:19:16;;;;;;;16.92;5.22;;;;;;;3.03;100.00;99743.59;5048047;28;20094;-60
2022/01/05 11:21:55;;;;;;;16.70;5.75;;;;;;;2.96;100.00;99755.06;5049389;28;20047;-61
2022/01/05 11:24:21;;;;;;;14.15;5.72;;;;;;;2.91;100.00;99747.41;5046473;28;20085;-62